sensor_id;sensor_type;location;lat;lon;timestamp;P1;durP1;ratioP1;P2;durP2;ratioP2
4106;SDS011;21906;50.812;7.132;2022-12-26T00:01:54;2.33;;;1.90;;
4106;SDS011;21906;50.812;7.132;2022-12-26T00:04:21;2.00;;;1.90;;
4106;SDS011;21906;50.812;7.132;2022-12-26T00:06:47;1.90;;;1.80;;
4106;SDS011;21906;50.812;7.132;2022-12-26T00:09:13;2.10;;;2.00;;
4106;SDS011;21906;50.812;7.132;2022-12-26T00:11:39;1.83;;;1.73;;
4106;SDS011;21906;50.812;7.132;2022-12-26T00:14:12;1.97;;;1.87;;
4106;SDS011;21906;50.812;7.132;2022-12-26T00:16:39;2.10;;;1.90;;
4106;SDS011;21906;50.812;7.132;2022-12-26T00:19:07;1.90;;;1.80;;
4106;SDS011;21906;50.812;7.132;2022-12-26T00:21:33;1.90;;;1.80;;
4106;SDS011;21906;50.812;7.132;2022-12-26T00:23:59;2.20;;;1.60;;
4106;SDS011;21906;50.812;7.132;2022-12-26T00:26:26;2.63;;;1.80;;
4106;SDS011;21906;50.812;7.132;2022-12-26T00:28:54;2.10;;;2.00;;
4106;SDS011;21906;50.812;7.132;2022-12-26T00:31:21;1.90;;;1.80;;
4106;SDS011;21906;50.812;7.132;2022-12-26T00:33:48;2.70;;;1.90;;
4106;SDS011;21906;50.812;7.132;2022-12-26T00:36:15;2.50;;;2.30;;
4106;SDS011;21906;50.812;7.132;2022-12-26T00:38:46;1.80;;;1.70;;
4106;SDS011;21906;50.812;7.132;2022-12-26T00:41:13;2.37;;;2.00;;
4106;SDS011;21906;50.812;7.132;2022-12-26T00:43:39;2.03;;;1.93;;
4106;SDS011;21906;50.812;7.132;2022-12-26T00:46:05;2.17;;;2.07;;
4106;SDS011;21906;50.812;7.132;2022-12-26T00:48:32;2.23;;;2.03;;
4106;SDS011;21906;50.812;7.132;2022-12-26T00:50:58;5.63;;;2.30;;
4106;SDS011;21906;50.812;7.132;2022-12-26T00:53:24;2.60;;;2.40;;
4106;SDS011;21906;50.812;7.132;2022-12-26T00:55:50;2.30;;;2.20;;
4106;SDS011;21906;50.812;7.132;2022-12-26T00:58:17;2.30;;;2.20;;
4106;SDS011;21906;50.812;7.132;2022-12-26T01:00:43;2.27;;;2.17;;
4106;SDS011;21906;50.812;7.132;2022-12-26T01:03:09;2.50;;;2.30;;
4106;SDS011;21906;50.812;7.132;2022-12-26T01:05:40;2.20;;;2.03;;
4106;SDS011;21906;50.812;7.132;2022-12-26T01:08:07;2.20;;;2.10;;
4106;SDS011;21906;50.812;7.132;2022-12-26T01:10:32;2.60;;;2.40;;
4106;SDS011;21906;50.812;7.132;2022-12-26T01:12:58;3.47;;;2.20;;
4106;SDS011;21906;50.812;7.132;2022-12-26T01:15:24;2.53;;;2.33;;
4106;SDS011;21906;50.812;7.132;2022-12-26T01:17:49;3.23;;;2.20;;
4106;SDS011;21906;50.812;7.132;2022-12-26T01:20:15;2.10;;;2.00;;
4106;SDS011;21906;50.812;7.132;2022-12-26T01:22:40;2.37;;;2.17;;
4106;SDS011;21906;50.812;7.132;2022-12-26T01:25:06;3.33;;;3.13;;
4106;SDS011;21906;50.812;7.132;2022-12-26T01:27:32;2.13;;;2.03;;
4106;SDS011;21906;50.812;7.132;2022-12-26T01:29:58;2.53;;;2.33;;
4106;SDS011;21906;50.812;7.132;2022-12-26T01:32:24;2.67;;;2.47;;
4106;SDS011;21906;50.812;7.132;2022-12-26T01:34:50;2.67;;;2.47;;
4106;SDS011;21906;50.812;7.132;2022-12-26T01:37:19;2.30;;;2.20;;
4106;SDS011;21906;50.812;7.132;2022-12-26T01:39:46;2.00;;;1.90;;
4106;SDS011;21906;50.812;7.132;2022-12-26T01:42:13;3.10;;;2.20;;
4106;SDS011;21906;50.812;7.132;2022-12-26T01:47:46;2.60;;;2.40;;
4106;SDS011;21906;50.812;7.132;2022-12-26T01:53:04;2.03;;;1.93;;
4106;SDS011;21906;50.812;7.132;2022-12-26T01:56:21;2.10;;;2.00;;
4106;SDS011;21906;50.812;7.132;2022-12-26T01:58:48;2.60;;;2.40;;
4106;SDS011;21906;50.812;7.132;2022-12-26T02:04:42;2.50;;;2.30;;
4106;SDS011;21906;50.812;7.132;2022-12-26T02:07:29;2.83;;;2.43;;
4106;SDS011;21906;50.812;7.132;2022-12-26T02:09:58;2.47;;;2.30;;
4106;SDS011;21906;50.812;7.132;2022-12-26T02:12:28;2.30;;;2.07;;
4106;SDS011;21906;50.812;7.132;2022-12-26T02:14:55;2.20;;;2.10;;
4106;SDS011;21906;50.812;7.132;2022-12-26T02:17:22;2.33;;;2.23;;
4106;SDS011;21906;50.812;7.132;2022-12-26T02:19:51;3.83;;;2.60;;
4106;SDS011;21906;50.812;7.132;2022-12-26T02:38:56;3.00;;;2.80;;
4106;SDS011;21906;50.812;7.132;2022-12-26T02:41:45;2.57;;;2.40;;
4106;SDS011;21906;50.812;7.132;2022-12-26T02:44:21;2.60;;;2.30;;
4106;SDS011;21906;50.812;7.132;2022-12-26T02:50:39;4.93;;;2.60;;
4106;SDS011;21906;50.812;7.132;2022-12-26T02:56:50;3.70;;;2.40;;
4106;SDS011;21906;50.812;7.132;2022-12-26T03:03:13;3.07;;;2.10;;
4106;SDS011;21906;50.812;7.132;2022-12-26T03:05:54;2.87;;;2.20;;
4106;SDS011;21906;50.812;7.132;2022-12-26T03:08:45;3.57;;;2.57;;
4106;SDS011;21906;50.812;7.132;2022-12-26T03:11:42;2.43;;;2.23;;
4106;SDS011;21906;50.812;7.132;2022-12-26T03:15:04;3.87;;;2.23;;
4106;SDS011;21906;50.812;7.132;2022-12-26T03:20:12;3.03;;;2.17;;
4106;SDS011;21906;50.812;7.132;2022-12-26T03:22:55;2.57;;;2.37;;
4106;SDS011;21906;50.812;7.132;2022-12-26T03:28:17;2.53;;;2.33;;
4106;SDS011;21906;50.812;7.132;2022-12-26T03:30:43;2.57;;;2.37;;
4106;SDS011;21906;50.812;7.132;2022-12-26T03:36:14;2.63;;;2.30;;
4106;SDS011;21906;50.812;7.132;2022-12-26T03:38:59;3.00;;;2.00;;
4106;SDS011;21906;50.812;7.132;2022-12-26T03:42:22;2.47;;;2.27;;
4106;SDS011;21906;50.812;7.132;2022-12-26T03:44:59;2.10;;;1.90;;
4106;SDS011;21906;50.812;7.132;2022-12-26T03:51:06;2.20;;;2.00;;
4106;SDS011;21906;50.812;7.132;2022-12-26T03:54:01;3.20;;;2.90;;
4106;SDS011;21906;50.812;7.132;2022-12-26T03:56:53;2.30;;;2.10;;
4106;SDS011;21906;50.812;7.132;2022-12-26T03:59:46;1.87;;;1.77;;
4106;SDS011;21906;50.812;7.132;2022-12-26T04:02:41;2.57;;;2.07;;
4106;SDS011;21906;50.812;7.132;2022-12-26T04:05:28;2.50;;;1.83;;
4106;SDS011;21906;50.812;7.132;2022-12-26T04:08:17;3.53;;;1.97;;
4106;SDS011;21906;50.812;7.132;2022-12-26T04:11:09;2.20;;;1.90;;
4106;SDS011;21906;50.812;7.132;2022-12-26T04:17:28;3.17;;;2.00;;
4106;SDS011;21906;50.812;7.132;2022-12-26T04:20:59;1.93;;;1.73;;
4106;SDS011;21906;50.812;7.132;2022-12-26T04:23:30;1.80;;;1.70;;
4106;SDS011;21906;50.812;7.132;2022-12-26T04:26:29;2.80;;;1.97;;
4106;SDS011;21906;50.812;7.132;2022-12-26T04:29:19;1.70;;;1.60;;
4106;SDS011;21906;50.812;7.132;2022-12-26T04:32:09;2.30;;;1.40;;
4106;SDS011;21906;50.812;7.132;2022-12-26T04:38:25;1.90;;;1.70;;
4106;SDS011;21906;50.812;7.132;2022-12-26T04:41:13;1.80;;;1.70;;
4106;SDS011;21906;50.812;7.132;2022-12-26T04:43:59;1.97;;;1.70;;
4106;SDS011;21906;50.812;7.132;2022-12-26T04:46:38;1.67;;;1.50;;
4106;SDS011;21906;50.812;7.132;2022-12-26T04:49:10;3.13;;;2.10;;
4106;SDS011;21906;50.812;7.132;2022-12-26T04:51:57;2.23;;;1.63;;
4106;SDS011;21906;50.812;7.132;2022-12-26T04:54:24;2.37;;;1.53;;
4106;SDS011;21906;50.812;7.132;2022-12-26T04:56:51;2.83;;;1.70;;
4106;SDS011;21906;50.812;7.132;2022-12-26T04:59:19;3.00;;;1.80;;
4106;SDS011;21906;50.812;7.132;2022-12-26T05:01:45;1.70;;;1.60;;
4106;SDS011;21906;50.812;7.132;2022-12-26T05:04:29;1.70;;;1.60;;
4106;SDS011;21906;50.812;7.132;2022-12-26T05:07:26;1.70;;;1.60;;
4106;SDS011;21906;50.812;7.132;2022-12-26T05:10:17;1.80;;;1.70;;
4106;SDS011;21906;50.812;7.132;2022-12-26T05:12:44;1.70;;;1.60;;
4106;SDS011;21906;50.812;7.132;2022-12-26T05:15:10;1.60;;;1.50;;
4106;SDS011;21906;50.812;7.132;2022-12-26T05:17:36;1.77;;;1.67;;
4106;SDS011;21906;50.812;7.132;2022-12-26T05:20:20;1.90;;;1.67;;
4106;SDS011;21906;50.812;7.132;2022-12-26T05:23:06;1.90;;;1.80;;
4106;SDS011;21906;50.812;7.132;2022-12-26T05:25:59;2.27;;;1.87;;
4106;SDS011;21906;50.812;7.132;2022-12-26T05:28:43;1.97;;;1.73;;
4106;SDS011;21906;50.812;7.132;2022-12-26T05:31:10;2.47;;;2.03;;
4106;SDS011;21906;50.812;7.132;2022-12-26T05:33:38;1.60;;;1.50;;
4106;SDS011;21906;50.812;7.132;2022-12-26T05:36:23;6.57;;;1.70;;
4106;SDS011;21906;50.812;7.132;2022-12-26T05:38:53;2.73;;;1.80;;
4106;SDS011;21906;50.812;7.132;2022-12-26T05:41:21;1.77;;;1.67;;
4106;SDS011;21906;50.812;7.132;2022-12-26T05:43:47;3.30;;;1.70;;
4106;SDS011;21906;50.812;7.132;2022-12-26T05:46:13;2.50;;;1.73;;
4106;SDS011;21906;50.812;7.132;2022-12-26T05:48:39;1.70;;;1.60;;
4106;SDS011;21906;50.812;7.132;2022-12-26T05:51:04;1.50;;;1.40;;
4106;SDS011;21906;50.812;7.132;2022-12-26T05:53:31;1.90;;;1.80;;
4106;SDS011;21906;50.812;7.132;2022-12-26T05:56:01;1.87;;;1.60;;
4106;SDS011;21906;50.812;7.132;2022-12-26T05:58:28;2.43;;;1.83;;
4106;SDS011;21906;50.812;7.132;2022-12-26T06:01:02;3.67;;;1.60;;
4106;SDS011;21906;50.812;7.132;2022-12-26T06:03:49;1.83;;;1.57;;
4106;SDS011;21906;50.812;7.132;2022-12-26T06:06:20;1.73;;;1.63;;
4106;SDS011;21906;50.812;7.132;2022-12-26T06:08:47;2.00;;;1.80;;
4106;SDS011;21906;50.812;7.132;2022-12-26T06:11:17;2.80;;;1.40;;
4106;SDS011;21906;50.812;7.132;2022-12-26T06:13:43;1.80;;;1.70;;
4106;SDS011;21906;50.812;7.132;2022-12-26T06:16:10;1.90;;;1.80;;
4106;SDS011;21906;50.812;7.132;2022-12-26T06:18:39;2.30;;;2.10;;
4106;SDS011;21906;50.812;7.132;2022-12-26T06:21:06;2.60;;;2.40;;
4106;SDS011;21906;50.812;7.132;2022-12-26T06:23:33;3.03;;;2.77;;
4106;SDS011;21906;50.812;7.132;2022-12-26T06:26:00;3.10;;;2.80;;
4106;SDS011;21906;50.812;7.132;2022-12-26T06:28:26;2.60;;;2.40;;
4106;SDS011;21906;50.812;7.132;2022-12-26T06:30:52;2.70;;;2.37;;
4106;SDS011;21906;50.812;7.132;2022-12-26T06:33:18;2.57;;;2.20;;
4106;SDS011;21906;50.812;7.132;2022-12-26T06:35:44;2.10;;;1.90;;
4106;SDS011;21906;50.812;7.132;2022-12-26T06:38:10;1.60;;;1.50;;
4106;SDS011;21906;50.812;7.132;2022-12-26T06:40:37;1.77;;;1.30;;
4106;SDS011;21906;50.812;7.132;2022-12-26T06:43:06;1.43;;;1.30;;
4106;SDS011;21906;50.812;7.132;2022-12-26T06:45:32;1.13;;;0.83;;
4106;SDS011;21906;50.812;7.132;2022-12-26T06:47:58;1.70;;;1.10;;
4106;SDS011;21906;50.812;7.132;2022-12-26T06:50:24;1.10;;;1.00;;
4106;SDS011;21906;50.812;7.132;2022-12-26T06:52:50;1.10;;;0.80;;
4106;SDS011;21906;50.812;7.132;2022-12-26T06:55:16;1.13;;;1.03;;
4106;SDS011;21906;50.812;7.132;2022-12-26T06:57:42;1.10;;;1.00;;
4106;SDS011;21906;50.812;7.132;2022-12-26T07:00:07;1.40;;;0.90;;
4106;SDS011;21906;50.812;7.132;2022-12-26T07:02:34;1.17;;;0.80;;
4106;SDS011;21906;50.812;7.132;2022-12-26T07:05:00;1.97;;;0.90;;
4106;SDS011;21906;50.812;7.132;2022-12-26T07:07:25;1.20;;;1.00;;
4106;SDS011;21906;50.812;7.132;2022-12-26T07:09:51;0.90;;;0.70;;
4106;SDS011;21906;50.812;7.132;2022-12-26T07:12:17;1.10;;;1.00;;
4106;SDS011;21906;50.812;7.132;2022-12-26T07:14:45;1.50;;;1.00;;
4106;SDS011;21906;50.812;7.132;2022-12-26T07:17:11;2.17;;;0.80;;
4106;SDS011;21906;50.812;7.132;2022-12-26T07:19:37;0.93;;;0.83;;
4106;SDS011;21906;50.812;7.132;2022-12-26T07:22:03;1.20;;;0.80;;
4106;SDS011;21906;50.812;7.132;2022-12-26T07:24:28;1.10;;;0.90;;
4106;SDS011;21906;50.812;7.132;2022-12-26T07:26:54;1.10;;;1.00;;
4106;SDS011;21906;50.812;7.132;2022-12-26T07:29:20;1.83;;;0.90;;
4106;SDS011;21906;50.812;7.132;2022-12-26T07:31:46;1.50;;;1.00;;
4106;SDS011;21906;50.812;7.132;2022-12-26T07:34:12;1.10;;;1.00;;
4106;SDS011;21906;50.812;7.132;2022-12-26T07:36:38;1.43;;;1.33;;
4106;SDS011;21906;50.812;7.132;2022-12-26T07:39:04;1.30;;;1.20;;
4106;SDS011;21906;50.812;7.132;2022-12-26T07:41:29;1.33;;;1.17;;
4106;SDS011;21906;50.812;7.132;2022-12-26T07:44:14;1.30;;;1.17;;
4106;SDS011;21906;50.812;7.132;2022-12-26T07:46:39;2.00;;;1.33;;
4106;SDS011;21906;50.812;7.132;2022-12-26T07:49:06;1.40;;;1.20;;
4106;SDS011;21906;50.812;7.132;2022-12-26T07:51:31;1.80;;;1.70;;
4106;SDS011;21906;50.812;7.132;2022-12-26T07:53:57;1.40;;;1.30;;
4106;SDS011;21906;50.812;7.132;2022-12-26T07:56:23;2.00;;;1.30;;
4106;SDS011;21906;50.812;7.132;2022-12-26T07:58:49;2.30;;;1.83;;
4106;SDS011;21906;50.812;7.132;2022-12-26T08:01:15;1.50;;;1.40;;
4106;SDS011;21906;50.812;7.132;2022-12-26T08:03:42;2.23;;;1.70;;
4106;SDS011;21906;50.812;7.132;2022-12-26T08:06:10;3.00;;;2.80;;
4106;SDS011;21906;50.812;7.132;2022-12-26T08:08:36;4.30;;;2.27;;
4106;SDS011;21906;50.812;7.132;2022-12-26T08:11:03;2.10;;;1.50;;
4106;SDS011;21906;50.812;7.132;2022-12-26T08:13:31;2.20;;;1.43;;
4106;SDS011;21906;50.812;7.132;2022-12-26T08:15:57;1.70;;;1.60;;
4106;SDS011;21906;50.812;7.132;2022-12-26T08:18:23;2.10;;;1.90;;
4106;SDS011;21906;50.812;7.132;2022-12-26T08:20:49;2.93;;;2.60;;
4106;SDS011;21906;50.812;7.132;2022-12-26T08:23:16;2.77;;;2.10;;
4106;SDS011;21906;50.812;7.132;2022-12-26T08:25:42;2.33;;;1.80;;
4106;SDS011;21906;50.812;7.132;2022-12-26T08:28:08;1.50;;;1.40;;
4106;SDS011;21906;50.812;7.132;2022-12-26T08:30:33;2.07;;;1.93;;
4106;SDS011;21906;50.812;7.132;2022-12-26T08:32:59;1.80;;;1.70;;
4106;SDS011;21906;50.812;7.132;2022-12-26T08:35:25;1.87;;;1.50;;
4106;SDS011;21906;50.812;7.132;2022-12-26T08:37:50;1.90;;;1.80;;
4106;SDS011;21906;50.812;7.132;2022-12-26T08:40:16;1.43;;;1.30;;
4106;SDS011;21906;50.812;7.132;2022-12-26T08:42:42;1.40;;;1.30;;
4106;SDS011;21906;50.812;7.132;2022-12-26T08:45:07;1.20;;;1.10;;
4106;SDS011;21906;50.812;7.132;2022-12-26T08:47:33;1.90;;;1.33;;
4106;SDS011;21906;50.812;7.132;2022-12-26T08:49:59;1.70;;;1.60;;
4106;SDS011;21906;50.812;7.132;2022-12-26T08:52:24;2.00;;;1.77;;
4106;SDS011;21906;50.812;7.132;2022-12-26T08:54:51;1.70;;;1.60;;
4106;SDS011;21906;50.812;7.132;2022-12-26T08:57:17;2.00;;;1.90;;
4106;SDS011;21906;50.812;7.132;2022-12-26T08:59:42;1.60;;;1.50;;
4106;SDS011;21906;50.812;7.132;2022-12-26T09:02:09;2.47;;;2.27;;
4106;SDS011;21906;50.812;7.132;2022-12-26T09:04:35;2.50;;;2.30;;
4106;SDS011;21906;50.812;7.132;2022-12-26T09:07:01;2.80;;;2.60;;
4106;SDS011;21906;50.812;7.132;2022-12-26T09:09:27;5.40;;;2.57;;
4106;SDS011;21906;50.812;7.132;2022-12-26T09:11:53;2.63;;;2.43;;
4106;SDS011;21906;50.812;7.132;2022-12-26T09:14:19;2.97;;;2.67;;
4106;SDS011;21906;50.812;7.132;2022-12-26T09:16:44;3.43;;;2.77;;
4106;SDS011;21906;50.812;7.132;2022-12-26T09:19:12;2.80;;;2.60;;
4106;SDS011;21906;50.812;7.132;2022-12-26T09:21:40;3.60;;;3.30;;
4106;SDS011;21906;50.812;7.132;2022-12-26T09:24:07;3.30;;;3.10;;
4106;SDS011;21906;50.812;7.132;2022-12-26T09:26:35;4.50;;;4.17;;
4106;SDS011;21906;50.812;7.132;2022-12-26T09:29:02;4.30;;;3.87;;
4106;SDS011;21906;50.812;7.132;2022-12-26T09:31:29;5.27;;;4.77;;
4106;SDS011;21906;50.812;7.132;2022-12-26T09:33:56;5.67;;;5.17;;
4106;SDS011;21906;50.812;7.132;2022-12-26T09:36:26;5.70;;;5.20;;
4106;SDS011;21906;50.812;7.132;2022-12-26T09:38:55;6.20;;;5.57;;
4106;SDS011;21906;50.812;7.132;2022-12-26T09:41:35;7.60;;;5.97;;
4106;SDS011;21906;50.812;7.132;2022-12-26T09:52:49;6.10;;;5.60;;
4106;SDS011;21906;50.812;7.132;2022-12-26T10:01:28;4.73;;;4.33;;
4106;SDS011;21906;50.812;7.132;2022-12-26T10:03:43;2.80;;;2.23;;
4106;SDS011;21906;50.812;7.132;2022-12-26T10:06:26;3.33;;;3.03;;
4106;SDS011;21906;50.812;7.132;2022-12-26T10:22:55;2.10;;;1.60;;
4106;SDS011;21906;50.812;7.132;2022-12-26T10:31:27;1.80;;;1.70;;
4106;SDS011;21906;50.812;7.132;2022-12-26T10:34:10;1.47;;;1.37;;
4106;SDS011;21906;50.812;7.132;2022-12-26T10:42:10;2.07;;;1.13;;
4106;SDS011;21906;50.812;7.132;2022-12-26T10:44:38;1.70;;;1.60;;
4106;SDS011;21906;50.812;7.132;2022-12-26T10:49:57;2.43;;;1.20;;
4106;SDS011;21906;50.812;7.132;2022-12-26T10:52:30;1.53;;;1.20;;
4106;SDS011;21906;50.812;7.132;2022-12-26T10:55:05;1.30;;;1.20;;
4106;SDS011;21906;50.812;7.132;2022-12-26T10:57:33;2.20;;;1.37;;
4106;SDS011;21906;50.812;7.132;2022-12-26T11:03:21;2.07;;;1.10;;
4106;SDS011;21906;50.812;7.132;2022-12-26T11:05:47;1.10;;;1.00;;
4106;SDS011;21906;50.812;7.132;2022-12-26T11:08:18;2.30;;;1.50;;
4106;SDS011;21906;50.812;7.132;2022-12-26T11:10:47;2.60;;;;;
4106;SDS011;21906;50.812;7.132;2022-12-26T11:13:25;1.20;;;0.90;;
4106;SDS011;21906;50.812;7.132;2022-12-26T11:15:51;2.37;;;1.50;;
4106;SDS011;21906;50.812;7.132;2022-12-26T11:20:46;2.60;;;1.97;;
4106;SDS011;21906;50.812;7.132;2022-12-26T11:25:49;1.73;;;1.20;;
4106;SDS011;21906;50.812;7.132;2022-12-26T11:28:24;2.03;;;1.20;;
4106;SDS011;21906;50.812;7.132;2022-12-26T11:30:50;1.60;;;1.10;;
4106;SDS011;21906;50.812;7.132;2022-12-26T11:35:45;1.50;;;1.10;;
4106;SDS011;21906;50.812;7.132;2022-12-26T11:38:18;1.30;;;1.20;;
4106;SDS011;21906;50.812;7.132;2022-12-26T11:41:01;1.40;;;1.10;;
4106;SDS011;21906;50.812;7.132;2022-12-26T11:43:56;2.17;;;1.30;;
4106;SDS011;21906;50.812;7.132;2022-12-26T11:49:29;2.27;;;1.20;;
4106;SDS011;21906;50.812;7.132;2022-12-26T11:51:58;1.63;;;1.20;;
4106;SDS011;21906;50.812;7.132;2022-12-26T11:54:27;2.30;;;1.20;;
4106;SDS011;21906;50.812;7.132;2022-12-26T11:59:55;1.20;;;1.07;;
4106;SDS011;21906;50.812;7.132;2022-12-26T12:02:40;2.23;;;1.20;;
4106;SDS011;21906;50.812;7.132;2022-12-26T12:05:12;2.10;;;1.20;;
4106;SDS011;21906;50.812;7.132;2022-12-26T12:10:30;1.40;;;1.10;;
4106;SDS011;21906;50.812;7.132;2022-12-26T12:21:43;2.10;;;1.07;;
4106;SDS011;21906;50.812;7.132;2022-12-26T12:32:15;1.60;;;1.50;;
4106;SDS011;21906;50.812;7.132;2022-12-26T12:43:54;2.00;;;1.17;;
4106;SDS011;21906;50.812;7.132;2022-12-26T13:01:00;1.10;;;0.90;;
4106;SDS011;21906;50.812;7.132;2022-12-26T13:03:49;2.00;;;1.23;;
4106;SDS011;21906;50.812;7.132;2022-12-26T13:09:07;1.20;;;0.90;;
4106;SDS011;21906;50.812;7.132;2022-12-26T13:11:43;1.00;;;0.70;;
4106;SDS011;21906;50.812;7.132;2022-12-26T13:14:31;1.30;;;1.00;;
4106;SDS011;21906;50.812;7.132;2022-12-26T13:18:09;1.57;;;1.23;;
4106;SDS011;21906;50.812;7.132;2022-12-26T13:22:50;1.87;;;1.00;;
4106;SDS011;21906;50.812;7.132;2022-12-26T13:25:43;1.83;;;1.20;;
4106;SDS011;21906;50.812;7.132;2022-12-26T13:28:15;0.90;;;0.80;;
4106;SDS011;21906;50.812;7.132;2022-12-26T13:30:45;1.30;;;0.90;;
4106;SDS011;21906;50.812;7.132;2022-12-26T13:33:17;1.63;;;0.90;;
4106;SDS011;21906;50.812;7.132;2022-12-26T13:35:50;1.20;;;0.80;;
4106;SDS011;21906;50.812;7.132;2022-12-26T13:38:17;1.20;;;0.70;;
4106;SDS011;21906;50.812;7.132;2022-12-26T13:40:45;1.63;;;1.10;;
4106;SDS011;21906;50.812;7.132;2022-12-26T13:43:18;1.60;;;1.30;;
4106;SDS011;21906;50.812;7.132;2022-12-26T13:46:31;1.30;;;0.97;;
4106;SDS011;21906;50.812;7.132;2022-12-26T13:49:36;1.63;;;1.20;;
4106;SDS011;21906;50.812;7.132;2022-12-26T13:59:59;1.40;;;1.20;;
4106;SDS011;21906;50.812;7.132;2022-12-26T14:05:24;1.60;;;1.10;;
4106;SDS011;21906;50.812;7.132;2022-12-26T14:08:12;2.63;;;1.30;;
4106;SDS011;21906;50.812;7.132;2022-12-26T14:13:46;2.87;;;1.23;;
4106;SDS011;21906;50.812;7.132;2022-12-26T14:21:44;1.67;;;1.00;;
4106;SDS011;21906;50.812;7.132;2022-12-26T14:24:40;1.17;;;1.00;;
4106;SDS011;21906;50.812;7.132;2022-12-26T14:30:19;1.10;;;0.83;;
4106;SDS011;21906;50.812;7.132;2022-12-26T14:41:19;1.87;;;1.20;;
4106;SDS011;21906;50.812;7.132;2022-12-26T14:44:09;2.30;;;1.50;;
4106;SDS011;21906;50.812;7.132;2022-12-26T14:54:47;2.93;;;1.20;;
4106;SDS011;21906;50.812;7.132;2022-12-26T15:00:17;2.40;;;1.30;;
4106;SDS011;21906;50.812;7.132;2022-12-26T15:05:30;2.37;;;2.10;;
4106;SDS011;21906;50.812;7.132;2022-12-26T15:24:54;2.87;;;2.33;;
4106;SDS011;21906;50.812;7.132;2022-12-26T15:30:46;1.70;;;1.60;;
4106;SDS011;21906;50.812;7.132;2022-12-26T15:38:55;1.80;;;1.70;;
4106;SDS011;21906;50.812;7.132;2022-12-26T15:41:46;2.93;;;2.20;;
4106;SDS011;21906;50.812;7.132;2022-12-26T15:44:37;2.77;;;2.57;;
4106;SDS011;21906;50.812;7.132;2022-12-26T15:58:37;2.40;;;2.07;;
4106;SDS011;21906;50.812;7.132;2022-12-26T16:01:37;4.23;;;2.40;;
4106;SDS011;21906;50.812;7.132;2022-12-26T16:04:06;2.37;;;2.00;;
4106;SDS011;21906;50.812;7.132;2022-12-26T16:14:59;3.97;;;2.40;;
4106;SDS011;21906;50.812;7.132;2022-12-26T16:17:37;6.27;;;2.47;;
4106;SDS011;21906;50.812;7.132;2022-12-26T16:23:05;3.40;;;2.30;;
4106;SDS011;21906;50.812;7.132;2022-12-26T16:25:35;4.70;;;2.50;;
4106;SDS011;21906;50.812;7.132;2022-12-26T16:28:00;3.57;;;3.10;;
4106;SDS011;21906;50.812;7.132;2022-12-26T16:30:27;5.40;;;3.00;;
4106;SDS011;21906;50.812;7.132;2022-12-26T16:32:56;4.73;;;3.10;;
4106;SDS011;21906;50.812;7.132;2022-12-26T16:35:25;5.30;;;2.93;;
4106;SDS011;21906;50.812;7.132;2022-12-26T16:37:57;3.13;;;2.63;;
4106;SDS011;21906;50.812;7.132;2022-12-26T16:43:30;4.57;;;2.80;;
4106;SDS011;21906;50.812;7.132;2022-12-26T16:46:00;4.47;;;2.97;;
4106;SDS011;21906;50.812;7.132;2022-12-26T16:48:30;3.83;;;2.60;;
4106;SDS011;21906;50.812;7.132;2022-12-26T16:51:03;4.00;;;3.20;;
4106;SDS011;21906;50.812;7.132;2022-12-26T16:58:40;3.87;;;3.47;;
4106;SDS011;21906;50.812;7.132;2022-12-26T17:01:07;6.97;;;3.80;;
4106;SDS011;21906;50.812;7.132;2022-12-26T17:03:59;6.37;;;3.63;;
4106;SDS011;21906;50.812;7.132;2022-12-26T17:06:50;4.30;;;3.90;;
4106;SDS011;21906;50.812;7.132;2022-12-26T17:09:23;4.30;;;3.90;;
4106;SDS011;21906;50.812;7.132;2022-12-26T17:12:01;6.60;;;4.80;;
4106;SDS011;21906;50.812;7.132;2022-12-26T17:14:35;5.93;;;4.57;;
4106;SDS011;21906;50.812;7.132;2022-12-26T17:17:05;8.30;;;4.50;;
4106;SDS011;21906;50.812;7.132;2022-12-26T17:19:45;7.70;;;5.00;;
4106;SDS011;21906;50.812;7.132;2022-12-26T17:22:29;8.67;;;5.20;;
4106;SDS011;21906;50.812;7.132;2022-12-26T17:30:45;9.43;;;4.97;;
4106;SDS011;21906;50.812;7.132;2022-12-26T17:33:24;5.67;;;5.00;;
4106;SDS011;21906;50.812;7.132;2022-12-26T17:35:54;7.63;;;5.30;;
4106;SDS011;21906;50.812;7.132;2022-12-26T17:38:31;9.47;;;5.27;;
4106;SDS011;21906;50.812;7.132;2022-12-26T17:40:58;6.87;;;6.17;;
4106;SDS011;21906;50.812;7.132;2022-12-26T17:43:34;12.17;;;5.60;;
4106;SDS011;21906;50.812;7.132;2022-12-26T17:46:02;6.30;;;5.67;;
4106;SDS011;21906;50.812;7.132;2022-12-26T17:48:30;7.73;;;6.03;;
4106;SDS011;21906;50.812;7.132;2022-12-26T17:50:57;7.90;;;6.10;;
4106;SDS011;21906;50.812;7.132;2022-12-26T17:53:31;8.43;;;6.60;;
4106;SDS011;21906;50.812;7.132;2022-12-26T17:56:14;11.00;;;8.50;;
4106;SDS011;21906;50.812;7.132;2022-12-26T17:58:43;12.60;;;5.70;;
4106;SDS011;21906;50.812;7.132;2022-12-26T18:01:09;4.50;;;2.97;;
4106;SDS011;21906;50.812;7.132;2022-12-26T18:03:35;4.37;;;2.70;;
4106;SDS011;21906;50.812;7.132;2022-12-26T18:06:01;3.50;;;3.20;;
4106;SDS011;21906;50.812;7.132;2022-12-26T18:08:35;5.33;;;4.83;;
4106;SDS011;21906;50.812;7.132;2022-12-26T18:11:03;5.70;;;4.93;;
4106;SDS011;21906;50.812;7.132;2022-12-26T18:13:31;7.27;;;4.90;;
4106;SDS011;21906;50.812;7.132;2022-12-26T18:15:57;9.70;;;5.10;;
4106;SDS011;21906;50.812;7.132;2022-12-26T18:20:59;5.50;;;4.60;;
4106;SDS011;21906;50.812;7.132;2022-12-26T18:23:25;7.90;;;5.03;;
4106;SDS011;21906;50.812;7.132;2022-12-26T18:25:51;8.40;;;4.90;;
4106;SDS011;21906;50.812;7.132;2022-12-26T18:28:19;7.60;;;5.37;;
4106;SDS011;21906;50.812;7.132;2022-12-26T18:30:45;7.10;;;5.43;;
4106;SDS011;21906;50.812;7.132;2022-12-26T18:33:11;9.40;;;4.90;;
4106;SDS011;21906;50.812;7.132;2022-12-26T18:35:38;8.97;;;4.53;;
4106;SDS011;21906;50.812;7.132;2022-12-26T18:38:05;5.60;;;5.10;;
4106;SDS011;21906;50.812;7.132;2022-12-26T18:40:38;5.27;;;4.80;;
4106;SDS011;21906;50.812;7.132;2022-12-26T18:43:06;8.07;;;5.20;;
4106;SDS011;21906;50.812;7.132;2022-12-26T18:45:32;7.70;;;4.80;;
4106;SDS011;21906;50.812;7.132;2022-12-26T18:47:59;6.83;;;4.80;;
4106;SDS011;21906;50.812;7.132;2022-12-26T18:50:25;6.43;;;4.27;;
4106;SDS011;21906;50.812;7.132;2022-12-26T18:52:52;4.70;;;4.23;;
4106;SDS011;21906;50.812;7.132;2022-12-26T18:55:17;5.90;;;4.00;;
4106;SDS011;21906;50.812;7.132;2022-12-26T18:57:43;8.23;;;3.93;;
4106;SDS011;21906;50.812;7.132;2022-12-26T19:00:12;6.63;;;3.70;;
4106;SDS011;21906;50.812;7.132;2022-12-26T19:02:40;3.97;;;2.80;;
4106;SDS011;21906;50.812;7.132;2022-12-26T19:05:06;2.97;;;2.67;;
4106;SDS011;21906;50.812;7.132;2022-12-26T19:07:38;3.83;;;2.80;;
4106;SDS011;21906;50.812;7.132;2022-12-26T19:10:04;3.87;;;2.30;;
4106;SDS011;21906;50.812;7.132;2022-12-26T19:12:30;3.30;;;2.60;;
4106;SDS011;21906;50.812;7.132;2022-12-26T19:14:55;8.03;;;2.97;;
4106;SDS011;21906;50.812;7.132;2022-12-26T19:17:21;7.40;;;2.90;;
4106;SDS011;21906;50.812;7.132;2022-12-26T19:19:47;7.40;;;3.10;;
4106;SDS011;21906;50.812;7.132;2022-12-26T19:22:12;4.63;;;2.87;;
4106;SDS011;21906;50.812;7.132;2022-12-26T19:24:38;6.20;;;2.73;;
4106;SDS011;21906;50.812;7.132;2022-12-26T19:27:04;5.17;;;2.33;;
4106;SDS011;21906;50.812;7.132;2022-12-26T19:29:29;3.73;;;2.17;;
4106;SDS011;21906;50.812;7.132;2022-12-26T19:31:55;5.60;;;2.57;;
4106;SDS011;21906;50.812;7.132;2022-12-26T19:34:21;4.80;;;2.23;;
4106;SDS011;21906;50.812;7.132;2022-12-26T19:36:47;3.47;;;2.83;;
4106;SDS011;21906;50.812;7.132;2022-12-26T19:39:13;2.90;;;2.60;;
4106;SDS011;21906;50.812;7.132;2022-12-26T19:41:39;4.53;;;3.07;;
4106;SDS011;21906;50.812;7.132;2022-12-26T19:44:05;7.47;;;2.73;;
4106;SDS011;21906;50.812;7.132;2022-12-26T19:46:31;3.27;;;2.70;;
4106;SDS011;21906;50.812;7.132;2022-12-26T19:48:56;11.10;;;2.50;;
4106;SDS011;21906;50.812;7.132;2022-12-26T19:51:22;9.90;;;2.60;;
4106;SDS011;21906;50.812;7.132;2022-12-26T19:53:48;2.80;;;2.43;;
4106;SDS011;21906;50.812;7.132;2022-12-26T19:58:50;6.00;;;2.80;;
4106;SDS011;21906;50.812;7.132;2022-12-26T20:01:17;4.20;;;2.63;;
4106;SDS011;21906;50.812;7.132;2022-12-26T20:03:48;7.77;;;3.13;;
4106;SDS011;21906;50.812;7.132;2022-12-26T20:06:23;6.23;;;2.63;;